sensor_id;sensor_type;location;lat;lon;timestamp;temperature;humidity
78788;DHT22;68131;52.508;5.502;2023-04-05T00:01:42;5.00;65.30
78788;DHT22;68131;52.508;5.502;2023-04-05T00:04:15;5.00;65.30
78788;DHT22;68131;52.508;5.502;2023-04-05T00:06:46;4.90;65.40
78788;DHT22;68131;52.508;5.502;2023-04-05T00:09:20;4.90;65.40
78788;DHT22;68131;52.508;5.502;2023-04-05T00:11:49;4.90;65.50
78788;DHT22;68131;52.508;5.502;2023-04-05T00:14:18;4.90;65.50
78788;DHT22;68131;52.508;5.502;2023-04-05T00:16:47;4.80;65.50
78788;DHT22;68131;52.508;5.502;2023-04-05T00:19:16;4.80;65.60
78788;DHT22;68131;52.508;5.502;2023-04-05T00:21:48;4.70;65.70
78788;DHT22;68131;52.508;5.502;2023-04-05T00:24:22;4.60;65.90
78788;DHT22;68131;52.508;5.502;2023-04-05T00:26:51;4.60;65.90
78788;DHT22;68131;52.508;5.502;2023-04-05T00:29:21;4.50;66.00
78788;DHT22;68131;52.508;5.502;2023-04-05T00:31:50;4.60;65.90
78788;DHT22;68131;52.508;5.502;2023-04-05T00:34:19;4.60;65.80
78788;DHT22;68131;52.508;5.502;2023-04-05T00:36:49;4.60;65.80
78788;DHT22;68131;52.508;5.502;2023-04-05T00:39:18;4.50;65.80
78788;DHT22;68131;52.508;5.502;2023-04-05T00:41:50;4.50;65.80
78788;DHT22;68131;52.508;5.502;2023-04-05T00:44:19;4.50;65.90
78788;DHT22;68131;52.508;5.502;2023-04-05T00:46:48;4.50;66.00
78788;DHT22;68131;52.508;5.502;2023-04-05T00:49:17;4.40;65.90
78788;DHT22;68131;52.508;5.502;2023-04-05T00:51:46;4.30;66.10
78788;DHT22;68131;52.508;5.502;2023-04-05T00:54:17;4.30;66.10
78788;DHT22;68131;52.508;5.502;2023-04-05T00:56:49;4.30;66.10
78788;DHT22;68131;52.508;5.502;2023-04-05T00:59:19;4.30;66.20
78788;DHT22;68131;52.508;5.502;2023-04-05T01:01:51;4.20;66.20
78788;DHT22;68131;52.508;5.502;2023-04-05T01:04:27;4.20;66.30
78788;DHT22;68131;52.508;5.502;2023-04-05T01:07:04;4.20;66.30
78788;DHT22;68131;52.508;5.502;2023-04-05T01:09:43;4.20;66.30
78788;DHT22;68131;52.508;5.502;2023-04-05T01:12:18;4.20;66.30
78788;DHT22;68131;52.508;5.502;2023-04-05T01:14:49;4.20;66.20
78788;DHT22;68131;52.508;5.502;2023-04-05T01:17:21;4.20;66.20
78788;DHT22;68131;52.508;5.502;2023-04-05T01:19:56;4.10;66.20
78788;DHT22;68131;52.508;5.502;2023-04-05T01:25:55;4.10;66.20
78788;DHT22;68131;52.508;5.502;2023-04-05T01:28:46;4.00;66.30
78788;DHT22;68131;52.508;5.502;2023-04-05T01:31:26;4.00;66.20
78788;DHT22;68131;52.508;5.502;2023-04-05T01:34:01;4.00;66.30
78788;DHT22;68131;52.508;5.502;2023-04-05T01:36:37;3.90;66.40
78788;DHT22;68131;52.508;5.502;2023-04-05T01:39:09;3.90;66.50
78788;DHT22;68131;52.508;5.502;2023-04-05T01:41:39;3.90;66.50
78788;DHT22;68131;52.508;5.502;2023-04-05T01:44:08;3.90;66.40
78788;DHT22;68131;52.508;5.502;2023-04-05T01:46:40;3.90;66.50
78788;DHT22;68131;52.508;5.502;2023-04-05T01:49:09;3.90;66.50
78788;DHT22;68131;52.508;5.502;2023-04-05T01:51:40;3.90;66.50
78788;DHT22;68131;52.508;5.502;2023-04-05T01:54:09;3.90;66.50
78788;DHT22;68131;52.508;5.502;2023-04-05T01:56:38;3.90;66.40
78788;DHT22;68131;52.508;5.502;2023-04-05T01:59:07;3.90;66.40
78788;DHT22;68131;52.508;5.502;2023-04-05T02:01:36;3.90;66.20
78788;DHT22;68131;52.508;5.502;2023-04-05T02:04:08;3.90;66.20
78788;DHT22;68131;52.508;5.502;2023-04-05T02:06:37;3.90;66.20
78788;DHT22;68131;52.508;5.502;2023-04-05T02:09:06;3.80;66.20
78788;DHT22;68131;52.508;5.502;2023-04-05T02:11:35;3.90;66.20
78788;DHT22;68131;52.508;5.502;2023-04-05T02:14:04;3.80;66.20
78788;DHT22;68131;52.508;5.502;2023-04-05T02:16:35;3.80;66.20
78788;DHT22;68131;52.508;5.502;2023-04-05T02:19:04;3.80;66.20
78788;DHT22;68131;52.508;5.502;2023-04-05T02:21:36;3.80;66.10
78788;DHT22;68131;52.508;5.502;2023-04-05T02:24:06;3.80;66.20
78788;DHT22;68131;52.508;5.502;2023-04-05T02:26:35;3.80;66.20
78788;DHT22;68131;52.508;5.502;2023-04-05T02:29:04;3.80;66.10
78788;DHT22;68131;52.508;5.502;2023-04-05T02:31:33;3.80;66.00
78788;DHT22;68131;52.508;5.502;2023-04-05T02:34:02;3.70;66.00
78788;DHT22;68131;52.508;5.502;2023-04-05T02:36:36;3.70;66.10
78788;DHT22;68131;52.508;5.502;2023-04-05T02:39:06;3.60;66.30
78788;DHT22;68131;52.508;5.502;2023-04-05T02:41:37;3.60;66.30
78788;DHT22;68131;52.508;5.502;2023-04-05T02:44:09;3.50;66.40
78788;DHT22;68131;52.508;5.502;2023-04-05T02:46:38;3.50;66.50
78788;DHT22;68131;52.508;5.502;2023-04-05T02:49:08;3.50;66.50
78788;DHT22;68131;52.508;5.502;2023-04-05T02:51:40;3.50;66.50
78788;DHT22;68131;52.508;5.502;2023-04-05T02:54:09;3.50;66.50
78788;DHT22;68131;52.508;5.502;2023-04-05T02:56:40;3.50;66.50
78788;DHT22;68131;52.508;5.502;2023-04-05T02:59:13;3.50;66.50
78788;DHT22;68131;52.508;5.502;2023-04-05T03:01:44;3.50;66.40
78788;DHT22;68131;52.508;5.502;2023-04-05T03:04:21;3.50;66.50
78788;DHT22;68131;52.508;5.502;2023-04-05T03:06:55;3.50;66.50
78788;DHT22;68131;52.508;5.502;2023-04-05T03:09:26;3.50;66.50
78788;DHT22;68131;52.508;5.502;2023-04-05T03:12:03;3.50;66.40
78788;DHT22;68131;52.508;5.502;2023-04-05T03:14:37;3.50;66.40
78788;DHT22;68131;52.508;5.502;2023-04-05T03:17:09;3.40;66.50
78788;DHT22;68131;52.508;5.502;2023-04-05T03:19:42;3.40;66.60
78788;DHT22;68131;52.508;5.502;2023-04-05T03:22:21;3.40;66.60
78788;DHT22;68131;52.508;5.502;2023-04-05T03:24:50;3.40;66.60
78788;DHT22;68131;52.508;5.502;2023-04-05T03:27:20;3.40;66.70
78788;DHT22;68131;52.508;5.502;2023-04-05T03:30:00;3.40;66.70
78788;DHT22;68131;52.508;5.502;2023-04-05T03:32:32;3.40;66.60
78788;DHT22;68131;52.508;5.502;2023-04-05T03:35:10;3.40;66.70
78788;DHT22;68131;52.508;5.502;2023-04-05T03:37:47;3.30;66.70
78788;DHT22;68131;52.508;5.502;2023-04-05T03:40:17;3.40;66.70
78788;DHT22;68131;52.508;5.502;2023-04-05T03:42:47;3.30;66.60
78788;DHT22;68131;52.508;5.502;2023-04-05T03:45:16;3.20;66.70
78788;DHT22;68131;52.508;5.502;2023-04-05T03:47:46;3.20;66.90
78788;DHT22;68131;52.508;5.502;2023-04-05T03:50:15;3.20;67.00
78788;DHT22;68131;52.508;5.502;2023-04-05T03:52:47;3.30;66.90
78788;DHT22;68131;52.508;5.502;2023-04-05T03:55:17;3.20;66.70
78788;DHT22;68131;52.508;5.502;2023-04-05T03:57:47;3.20;66.80
78788;DHT22;68131;52.508;5.502;2023-04-05T04:00:28;3.20;66.70
78788;DHT22;68131;52.508;5.502;2023-04-05T04:03:11;3.20;66.70
78788;DHT22;68131;52.508;5.502;2023-04-05T04:05:44;3.10;66.80
78788;DHT22;68131;52.508;5.502;2023-04-05T04:08:16;3.10;66.80
78788;DHT22;68131;52.508;5.502;2023-04-05T04:10:45;3.10;66.90
78788;DHT22;68131;52.508;5.502;2023-04-05T04:13:19;3.10;67.00
78788;DHT22;68131;52.508;5.502;2023-04-05T04:15:58;3.00;67.00
78788;DHT22;68131;52.508;5.502;2023-04-05T04:19:02;3.00;67.10
78788;DHT22;68131;52.508;5.502;2023-04-05T04:21:41;3.00;67.10
78788;DHT22;68131;52.508;5.502;2023-04-05T04:24:34;3.00;67.20
78788;DHT22;68131;52.508;5.502;2023-04-05T04:27:27;3.00;67.20
78788;DHT22;68131;52.508;5.502;2023-04-05T04:30:10;2.90;67.20
78788;DHT22;68131;52.508;5.502;2023-04-05T04:33:08;2.90;67.30
78788;DHT22;68131;52.508;5.502;2023-04-05T04:35:46;3.00;67.30
78788;DHT22;68131;52.508;5.502;2023-04-05T04:38:45;3.00;67.10
78788;DHT22;68131;52.508;5.502;2023-04-05T04:41:35;3.00;67.10
78788;DHT22;68131;52.508;5.502;2023-04-05T04:44:28;3.00;67.20
78788;DHT22;68131;52.508;5.502;2023-04-05T04:47:28;3.00;67.20
78788;DHT22;68131;52.508;5.502;2023-04-05T04:50:15;2.90;67.20
78788;DHT22;68131;52.508;5.502;2023-04-05T04:52:45;2.90;67.20
78788;DHT22;68131;52.508;5.502;2023-04-05T04:55:15;2.90;67.30
78788;DHT22;68131;52.508;5.502;2023-04-05T04:57:50;2.90;67.40
78788;DHT22;68131;52.508;5.502;2023-04-05T05:00:21;3.00;67.30
78788;DHT22;68131;52.508;5.502;2023-04-05T05:02:51;3.10;67.30
78788;DHT22;68131;52.508;5.502;2023-04-05T05:05:21;3.10;67.20
78788;DHT22;68131;52.508;5.502;2023-04-05T05:07:51;3.20;67.00
78788;DHT22;68131;52.508;5.502;2023-04-05T05:10:20;3.30;67.00
78788;DHT22;68131;52.508;5.502;2023-04-05T05:12:52;3.40;66.80
78788;DHT22;68131;52.508;5.502;2023-04-05T05:15:21;3.40;66.70
78788;DHT22;68131;52.508;5.502;2023-04-05T05:17:52;3.50;66.60
78788;DHT22;68131;52.508;5.502;2023-04-05T05:20:23;3.60;66.50
78788;DHT22;68131;52.508;5.502;2023-04-05T05:22:53;3.60;66.40
78788;DHT22;68131;52.508;5.502;2023-04-05T05:25:22;3.60;66.50
78788;DHT22;68131;52.508;5.502;2023-04-05T05:27:54;3.70;66.40
78788;DHT22;68131;52.508;5.502;2023-04-05T05:30:26;3.70;66.30
78788;DHT22;68131;52.508;5.502;2023-04-05T05:32:55;3.90;66.20
78788;DHT22;68131;52.508;5.502;2023-04-05T05:35:24;3.90;66.00
78788;DHT22;68131;52.508;5.502;2023-04-05T05:37:53;4.00;66.00
78788;DHT22;68131;52.508;5.502;2023-04-05T05:40:22;4.10;65.90
78788;DHT22;68131;52.508;5.502;2023-04-05T05:42:54;4.30;66.00
78788;DHT22;68131;52.508;5.502;2023-04-05T05:45:23;4.90;66.00
78788;DHT22;68131;52.508;5.502;2023-04-05T05:47:52;5.70;64.90
78788;DHT22;68131;52.508;5.502;2023-04-05T05:50:21;6.60;63.50
78788;DHT22;68131;52.508;5.502;2023-04-05T05:52:50;7.50;61.60
78788;DHT22;68131;52.508;5.502;2023-04-05T05:55:20;8.20;60.10
78788;DHT22;68131;52.508;5.502;2023-04-05T05:57:49;8.80;58.40
78788;DHT22;68131;52.508;5.502;2023-04-05T06:00:21;9.30;57.40
78788;DHT22;68131;52.508;5.502;2023-04-05T06:02:50;9.80;56.70
78788;DHT22;68131;52.508;5.502;2023-04-05T06:05:19;10.30;55.00
78788;DHT22;68131;52.508;5.502;2023-04-05T06:07:49;10.50;54.20
78788;DHT22;68131;52.508;5.502;2023-04-05T06:10:18;10.60;54.10
78788;DHT22;68131;52.508;5.502;2023-04-05T06:12:47;10.60;54.20
78788;DHT22;68131;52.508;5.502;2023-04-05T06:15:16;10.40;53.90
78788;DHT22;68131;52.508;5.502;2023-04-05T06:17:48;10.10;54.60
78788;DHT22;68131;52.508;5.502;2023-04-05T06:20:17;9.70;55.00
78788;DHT22;68131;52.508;5.502;2023-04-05T06:22:46;9.40;55.50
78788;DHT22;68131;52.508;5.502;2023-04-05T06:25:15;9.30;55.60
78788;DHT22;68131;52.508;5.502;2023-04-05T06:27:44;9.10;55.70
78788;DHT22;68131;52.508;5.502;2023-04-05T06:30:14;8.90;55.90
78788;DHT22;68131;52.508;5.502;2023-04-05T06:32:43;9.00;55.90
78788;DHT22;68131;52.508;5.502;2023-04-05T06:35:16;9.10;55.80
78788;DHT22;68131;52.508;5.502;2023-04-05T06:37:45;9.20;55.60
78788;DHT22;68131;52.508;5.502;2023-04-05T06:40:14;9.30;55.10
78788;DHT22;68131;52.508;5.502;2023-04-05T06:42:44;9.30;55.00
78788;DHT22;68131;52.508;5.502;2023-04-05T06:45:17;9.20;55.00
78788;DHT22;68131;52.508;5.502;2023-04-05T06:47:47;9.10;55.10
78788;DHT22;68131;52.508;5.502;2023-04-05T06:50:19;8.90;55.10
78788;DHT22;68131;52.508;5.502;2023-04-05T06:52:48;8.70;55.60
78788;DHT22;68131;52.508;5.502;2023-04-05T06:55:17;8.70;56.00
78788;DHT22;68131;52.508;5.502;2023-04-05T06:57:47;8.90;55.80
78788;DHT22;68131;52.508;5.502;2023-04-05T07:00:16;8.90;55.70
78788;DHT22;68131;52.508;5.502;2023-04-05T07:02:45;8.80;56.00
78788;DHT22;68131;52.508;5.502;2023-04-05T07:05:15;9.10;55.90
78788;DHT22;68131;52.508;5.502;2023-04-05T07:07:46;9.30;55.30
78788;DHT22;68131;52.508;5.502;2023-04-05T07:10:15;9.20;54.90
78788;DHT22;68131;52.508;5.502;2023-04-05T07:12:45;9.10;55.20
78788;DHT22;68131;52.508;5.502;2023-04-05T07:15:14;9.10;55.50
78788;DHT22;68131;52.508;5.502;2023-04-05T07:17:43;9.20;55.40
78788;DHT22;68131;52.508;5.502;2023-04-05T07:20:12;9.50;55.60
78788;DHT22;68131;52.508;5.502;2023-04-05T07:22:42;9.80;55.10
78788;DHT22;68131;52.508;5.502;2023-04-05T07:25:13;9.70;54.70
78788;DHT22;68131;52.508;5.502;2023-04-05T07:27:42;9.50;55.00
78788;DHT22;68131;52.508;5.502;2023-04-05T07:30:12;9.50;54.90
78788;DHT22;68131;52.508;5.502;2023-04-05T07:32:42;9.50;54.70
78788;DHT22;68131;52.508;5.502;2023-04-05T07:35:11;9.60;54.90
78788;DHT22;68131;52.508;5.502;2023-04-05T07:37:40;9.70;54.80
78788;DHT22;68131;52.508;5.502;2023-04-05T07:40:10;9.90;54.70
78788;DHT22;68131;52.508;5.502;2023-04-05T07:42:42;10.00;54.60
78788;DHT22;68131;52.508;5.502;2023-04-05T07:45:11;10.30;54.30
78788;DHT22;68131;52.508;5.502;2023-04-05T07:47:40;10.50;54.10
78788;DHT22;68131;52.508;5.502;2023-04-05T07:50:09;10.50;53.80
78788;DHT22;68131;52.508;5.502;2023-04-05T07:52:40;10.50;53.70
78788;DHT22;68131;52.508;5.502;2023-04-05T07:55:09;10.50;54.10
78788;DHT22;68131;52.508;5.502;2023-04-05T07:57:41;10.60;53.90
78788;DHT22;68131;52.508;5.502;2023-04-05T08:00:12;10.80;53.90
78788;DHT22;68131;52.508;5.502;2023-04-05T08:02:42;10.80;53.40
78788;DHT22;68131;52.508;5.502;2023-04-05T08:05:11;10.80;53.60
78788;DHT22;68131;52.508;5.502;2023-04-05T08:07:40;10.60;53.60
78788;DHT22;68131;52.508;5.502;2023-04-05T08:10:10;10.30;54.20
78788;DHT22;68131;52.508;5.502;2023-04-05T08:12:41;10.10;54.70
78788;DHT22;68131;52.508;5.502;2023-04-05T08:15:10;10.30;55.00
78788;DHT22;68131;52.508;5.502;2023-04-05T08:17:39;10.40;54.30
78788;DHT22;68131;52.508;5.502;2023-04-05T08:20:09;10.30;54.70
78788;DHT22;68131;52.508;5.502;2023-04-05T08:22:39;10.20;55.10
78788;DHT22;68131;52.508;5.502;2023-04-05T08:25:08;10.30;55.10
78788;DHT22;68131;52.508;5.502;2023-04-05T08:27:37;10.40;54.70
78788;DHT22;68131;52.508;5.502;2023-04-05T08:30:10;10.40;54.50
78788;DHT22;68131;52.508;5.502;2023-04-05T08:32:39;10.50;54.10
78788;DHT22;68131;52.508;5.502;2023-04-05T08:35:08;10.60;53.50
78788;DHT22;68131;52.508;5.502;2023-04-05T08:37:37;10.60;53.50
78788;DHT22;68131;52.508;5.502;2023-04-05T08:40:08;10.80;52.70
78788;DHT22;68131;52.508;5.502;2023-04-05T08:42:43;10.80;52.90
78788;DHT22;68131;52.508;5.502;2023-04-05T08:45:17;11.00;52.20
78788;DHT22;68131;52.508;5.502;2023-04-05T08:47:48;11.10;51.10
78788;DHT22;68131;52.508;5.502;2023-04-05T08:50:17;11.30;51.80
78788;DHT22;68131;52.508;5.502;2023-04-05T08:52:46;11.60;50.70
78788;DHT22;68131;52.508;5.502;2023-04-05T08:55:16;11.70;50.30
78788;DHT22;68131;52.508;5.502;2023-04-05T08:57:49;11.80;49.50
78788;DHT22;68131;52.508;5.502;2023-04-05T09:00:22;11.60;49.40
78788;DHT22;68131;52.508;5.502;2023-04-05T09:02:55;11.40;50.40
78788;DHT22;68131;52.508;5.502;2023-04-05T09:05:25;11.30;50.50
78788;DHT22;68131;52.508;5.502;2023-04-05T09:07:56;11.50;50.30
78788;DHT22;68131;52.508;5.502;2023-04-05T09:10:26;11.60;49.00
78788;DHT22;68131;52.508;5.502;2023-04-05T09:12:55;11.70;49.70
78788;DHT22;68131;52.508;5.502;2023-04-05T09:15:27;11.80;48.90
78788;DHT22;68131;52.508;5.502;2023-04-05T09:17:57;11.80;49.00
78788;DHT22;68131;52.508;5.502;2023-04-05T09:20:26;11.80;49.00
78788;DHT22;68131;52.508;5.502;2023-04-05T09:22:56;11.90;49.10
78788;DHT22;68131;52.508;5.502;2023-04-05T09:25:36;11.90;48.60
78788;DHT22;68131;52.508;5.502;2023-04-05T09:28:08;11.90;48.70
78788;DHT22;68131;52.508;5.502;2023-04-05T09:30:44;12.10;48.40
78788;DHT22;68131;52.508;5.502;2023-04-05T09:33:17;12.30;47.60
78788;DHT22;68131;52.508;5.502;2023-04-05T09:35:49;12.20;47.00
78788;DHT22;68131;52.508;5.502;2023-04-05T09:38:43;12.00;47.00
78788;DHT22;68131;52.508;5.502;2023-04-05T09:41:12;11.90;47.60
78788;DHT22;68131;52.508;5.502;2023-04-05T09:43:41;11.90;48.20
78788;DHT22;68131;52.508;5.502;2023-04-05T09:46:31;12.10;48.10
78788;DHT22;68131;52.508;5.502;2023-04-05T09:49:03;12.30;47.50
78788;DHT22;68131;52.508;5.502;2023-04-05T09:51:35;12.30;46.90
78788;DHT22;68131;52.508;5.502;2023-04-05T09:54:09;12.30;47.20
78788;DHT22;68131;52.508;5.502;2023-04-05T09:56:39;12.50;47.30
78788;DHT22;68131;52.508;5.502;2023-04-05T09:59:10;12.70;47.20
78788;DHT22;68131;52.508;5.502;2023-04-05T10:01:50;12.80;47.10
78788;DHT22;68131;52.508;5.502;2023-04-05T10:04:19;12.80;46.60
78788;DHT22;68131;52.508;5.502;2023-04-05T10:06:49;12.80;46.90
78788;DHT22;68131;52.508;5.502;2023-04-05T10:09:18;12.80;46.40
78788;DHT22;68131;52.508;5.502;2023-04-05T10:11:47;12.70;46.00
78788;DHT22;68131;52.508;5.502;2023-04-05T10:14:17;12.80;45.90
78788;DHT22;68131;52.508;5.502;2023-04-05T10:16:55;12.80;45.90
78788;DHT22;68131;52.508;5.502;2023-04-05T10:22:25;12.70;46.00
78788;DHT22;68131;52.508;5.502;2023-04-05T10:25:02;12.50;45.60
78788;DHT22;68131;52.508;5.502;2023-04-05T10:27:36;12.30;47.10
78788;DHT22;68131;52.508;5.502;2023-04-05T10:30:08;12.30;46.70
78788;DHT22;68131;52.508;5.502;2023-04-05T10:33:00;12.30;47.40
78788;DHT22;68131;52.508;5.502;2023-04-05T10:35:42;12.60;47.70
78788;DHT22;68131;52.508;5.502;2023-04-05T10:38:22;12.80;46.20
78788;DHT22;68131;52.508;5.502;2023-04-05T10:40:54;12.40;46.30
78788;DHT22;68131;52.508;5.502;2023-04-05T10:43:25;12.30;46.90
78788;DHT22;68131;52.508;5.502;2023-04-05T10:45:56;12.40;47.10
78788;DHT22;68131;52.508;5.502;2023-04-05T10:48:43;12.40;46.50
78788;DHT22;68131;52.508;5.502;2023-04-05T10:51:14;12.30;46.50
78788;DHT22;68131;52.508;5.502;2023-04-05T10:53:44;12.20;46.60
78788;DHT22;68131;52.508;5.502;2023-04-05T10:56:14;12.20;47.30
78788;DHT22;68131;52.508;5.502;2023-04-05T10:58:44;12.20;47.10
78788;DHT22;68131;52.508;5.502;2023-04-05T11:01:14;12.30;47.60
78788;DHT22;68131;52.508;5.502;2023-04-05T11:03:51;12.40;47.00
78788;DHT22;68131;52.508;5.502;2023-04-05T11:06:23;12.40;47.10
78788;DHT22;68131;52.508;5.502;2023-04-05T11:08:54;12.50;47.20
78788;DHT22;68131;52.508;5.502;2023-04-05T11:11:23;12.50;46.70
78788;DHT22;68131;52.508;5.502;2023-04-05T11:13:54;12.50;47.10
78788;DHT22;68131;52.508;5.502;2023-04-05T11:16:37;12.50;47.40
78788;DHT22;68131;52.508;5.502;2023-04-05T11:19:09;12.50;47.50
78788;DHT22;68131;52.508;5.502;2023-04-05T11:21:38;12.60;47.60
78788;DHT22;68131;52.508;5.502;2023-04-05T11:24:10;12.70;46.80
78788;DHT22;68131;52.508;5.502;2023-04-05T11:26:55;12.50;46.30
78788;DHT22;68131;52.508;5.502;2023-04-05T11:29:46;12.60;47.30
78788;DHT22;68131;52.508;5.502;2023-04-05T11:32:16;12.80;47.50
78788;DHT22;68131;52.508;5.502;2023-04-05T11:34:57;13.00;47.50
78788;DHT22;68131;52.508;5.502;2023-04-05T11:37:51;13.20;47.30
78788;DHT22;68131;52.508;5.502;2023-04-05T11:40:26;13.40;46.50
78788;DHT22;68131;52.508;5.502;2023-04-05T11:43:05;13.30;46.10
78788;DHT22;68131;52.508;5.502;2023-04-05T11:45:36;13.30;45.80
78788;DHT22;68131;52.508;5.502;2023-04-05T11:48:07;13.10;45.20
78788;DHT22;68131;52.508;5.502;2023-04-05T11:50:39;12.90;45.60
78788;DHT22;68131;52.508;5.502;2023-04-05T11:53:10;12.70;45.50
78788;DHT22;68131;52.508;5.502;2023-04-05T11:55:41;12.50;45.20
78788;DHT22;68131;52.508;5.502;2023-04-05T11:58:13;12.20;45.10
78788;DHT22;68131;52.508;5.502;2023-04-05T12:00:43;12.00;45.60
78788;DHT22;68131;52.508;5.502;2023-04-05T12:03:13;12.00;46.00
78788;DHT22;68131;52.508;5.502;2023-04-05T12:05:49;12.00;46.10
78788;DHT22;68131;52.508;5.502;2023-04-05T12:08:19;12.10;46.20
78788;DHT22;68131;52.508;5.502;2023-04-05T12:10:55;12.20;45.80
78788;DHT22;68131;52.508;5.502;2023-04-05T12:13:27;12.30;46.20
78788;DHT22;68131;52.508;5.502;2023-04-05T12:15:57;12.40;46.00
78788;DHT22;68131;52.508;5.502;2023-04-05T12:18:29;12.50;46.20
78788;DHT22;68131;52.508;5.502;2023-04-05T12:21:02;12.60;46.30
78788;DHT22;68131;52.508;5.502;2023-04-05T12:23:32;12.70;45.80
78788;DHT22;68131;52.508;5.502;2023-04-05T12:26:02;12.70;45.60
78788;DHT22;68131;52.508;5.502;2023-04-05T12:28:50;12.60;45.80
78788;DHT22;68131;52.508;5.502;2023-04-05T12:31:36;12.60;45.40
78788;DHT22;68131;52.508;5.502;2023-04-05T12:34:06;12.50;45.50
78788;DHT22;68131;52.508;5.502;2023-04-05T12:36:38;12.50;45.40
78788;DHT22;68131;52.508;5.502;2023-04-05T12:39:11;12.50;45.40
78788;DHT22;68131;52.508;5.502;2023-04-05T12:41:41;12.60;45.60
78788;DHT22;68131;52.508;5.502;2023-04-05T12:44:13;12.60;45.80
78788;DHT22;68131;52.508;5.502;2023-04-05T12:46:43;12.70;46.00
78788;DHT22;68131;52.508;5.502;2023-04-05T12:49:14;12.80;45.60
78788;DHT22;68131;52.508;5.502;2023-04-05T12:51:47;12.80;46.10
78788;DHT22;68131;52.508;5.502;2023-04-05T12:54:20;12.80;46.20
78788;DHT22;68131;52.508;5.502;2023-04-05T12:56:50;12.90;45.80
78788;DHT22;68131;52.508;5.502;2023-04-05T12:59:19;12.90;46.10
78788;DHT22;68131;52.508;5.502;2023-04-05T13:01:49;13.00;46.50
78788;DHT22;68131;52.508;5.502;2023-04-05T13:04:18;13.10;46.80
78788;DHT22;68131;52.508;5.502;2023-04-05T13:06:50;13.10;47.10
78788;DHT22;68131;52.508;5.502;2023-04-05T13:09:20;13.20;47.40
78788;DHT22;68131;52.508;5.502;2023-04-05T13:11:49;13.20;47.40
78788;DHT22;68131;52.508;5.502;2023-04-05T13:14:19;13.20;45.50
78788;DHT22;68131;52.508;5.502;2023-04-05T13:16:48;13.20;45.80
78788;DHT22;68131;52.508;5.502;2023-04-05T13:19:17;13.10;45.80
78788;DHT22;68131;52.508;5.502;2023-04-05T13:21:46;13.10;46.30
78788;DHT22;68131;52.508;5.502;2023-04-05T13:24:18;13.10;46.70
78788;DHT22;68131;52.508;5.502;2023-04-05T13:26:47;13.00;47.10
78788;DHT22;68131;52.508;5.502;2023-04-05T13:29:16;13.00;47.20
78788;DHT22;68131;52.508;5.502;2023-04-05T13:31:45;13.00;47.10
78788;DHT22;68131;52.508;5.502;2023-04-05T13:34:14;12.90;47.40
78788;DHT22;68131;52.508;5.502;2023-04-05T13:36:43;12.80;47.50
78788;DHT22;68131;52.508;5.502;2023-04-05T13:39:14;12.90;47.80
78788;DHT22;68131;52.508;5.502;2023-04-05T13:41:45;12.90;48.00
78788;DHT22;68131;52.508;5.502;2023-04-05T13:44:14;13.00;48.00
78788;DHT22;68131;52.508;5.502;2023-04-05T13:46:44;12.90;47.70
78788;DHT22;68131;52.508;5.502;2023-04-05T13:49:13;12.90;47.40
78788;DHT22;68131;52.508;5.502;2023-04-05T13:51:42;12.80;48.00
78788;DHT22;68131;52.508;5.502;2023-04-05T13:54:11;12.80;48.00
78788;DHT22;68131;52.508;5.502;2023-04-05T13:56:41;12.70;47.70
78788;DHT22;68131;52.508;5.502;2023-04-05T13:59:13;12.70;47.70
78788;DHT22;68131;52.508;5.502;2023-04-05T14:01:44;12.60;48.20
78788;DHT22;68131;52.508;5.502;2023-04-05T14:04:14;12.60;48.30
78788;DHT22;68131;52.508;5.502;2023-04-05T14:06:43;12.60;48.20
78788;DHT22;68131;52.508;5.502;2023-04-05T14:09:12;12.50;48.40
78788;DHT22;68131;52.508;5.502;2023-04-05T14:11:42;12.50;48.70
78788;DHT22;68131;52.508;5.502;2023-04-05T14:14:13;12.60;48.60
78788;DHT22;68131;52.508;5.502;2023-04-05T14:16:42;12.50;48.40
78788;DHT22;68131;52.508;5.502;2023-04-05T14:19:12;12.40;48.60
78788;DHT22;68131;52.508;5.502;2023-04-05T14:21:41;12.40;48.30
78788;DHT22;68131;52.508;5.502;2023-04-05T14:24:10;12.40;48.30
78788;DHT22;68131;52.508;5.502;2023-04-05T14:26:39;12.40;48.20
78788;DHT22;68131;52.508;5.502;2023-04-05T14:29:13;12.40;48.40
78788;DHT22;68131;52.508;5.502;2023-04-05T14:31:42;12.40;48.50
78788;DHT22;68131;52.508;5.502;2023-04-05T14:34:12;12.50;48.50
78788;DHT22;68131;52.508;5.502;2023-04-05T14:36:41;12.50;48.20
78788;DHT22;68131;52.508;5.502;2023-04-05T14:39:10;12.40;48.10
78788;DHT22;68131;52.508;5.502;2023-04-05T14:41:39;12.20;48.20
78788;DHT22;68131;52.508;5.502;2023-04-05T14:44:09;12.20;48.60
78788;DHT22;68131;52.508;5.502;2023-04-05T14:46:40;12.10;48.70
78788;DHT22;68131;52.508;5.502;2023-04-05T14:49:09;12.00;48.70
78788;DHT22;68131;52.508;5.502;2023-04-05T14:51:39;12.10;49.10
78788;DHT22;68131;52.508;5.502;2023-04-05T14:54:08;12.20;49.00
78788;DHT22;68131;52.508;5.502;2023-04-05T14:56:37;12.30;48.70
78788;DHT22;68131;52.508;5.502;2023-04-05T14:59:06;12.40;48.60
78788;DHT22;68131;52.508;5.502;2023-04-05T15:01:35;12.30;48.70
78788;DHT22;68131;52.508;5.502;2023-04-05T15:04:09;12.30;48.40
78788;DHT22;68131;52.508;5.502;2023-04-05T15:06:38;12.20;48.60
78788;DHT22;68131;52.508;5.502;2023-04-05T15:09:07;12.10;48.50
78788;DHT22;68131;52.508;5.502;2023-04-05T15:11:36;12.00;48.60
78788;DHT22;68131;52.508;5.502;2023-04-05T15:14:05;12.00;48.50
78788;DHT22;68131;52.508;5.502;2023-04-05T15:16:35;12.00;48.40
78788;DHT22;68131;52.508;5.502;2023-04-05T15:19:04;12.00;48.50
78788;DHT22;68131;52.508;5.502;2023-04-05T15:21:35;12.00;48.50
78788;DHT22;68131;52.508;5.502;2023-04-05T15:24:05;11.90;48.30
78788;DHT22;68131;52.508;5.502;2023-04-05T15:26:35;11.90;48.40
78788;DHT22;68131;52.508;5.502;2023-04-05T15:29:05;12.00;48.60
78788;DHT22;68131;52.508;5.502;2023-04-05T15:31:34;12.00;48.50
78788;DHT22;68131;52.508;5.502;2023-04-05T15:34:03;12.00;48.50
78788;DHT22;68131;52.508;5.502;2023-04-05T15:36:34;12.00;48.50
78788;DHT22;68131;52.508;5.502;2023-04-05T15:39:03;12.00;48.30
78788;DHT22;68131;52.508;5.502;2023-04-05T15:41:33;12.00;48.50
78788;DHT22;68131;52.508;5.502;2023-04-05T15:44:02;12.00;48.40
78788;DHT22;68131;52.508;5.502;2023-04-05T15:46:31;12.10;48.20
78788;DHT22;68131;52.508;5.502;2023-04-05T15:49:00;12.10;48.50
78788;DHT22;68131;52.508;5.502;2023-04-05T15:51:29;12.10;48.50
78788;DHT22;68131;52.508;5.502;2023-04-05T15:54:01;12.10;48.60
78788;DHT22;68131;52.508;5.502;2023-04-05T15:56:30;12.20;48.40
78788;DHT22;68131;52.508;5.502;2023-04-05T15:59:01;12.20;48.60
78788;DHT22;68131;52.508;5.502;2023-04-05T16:01:30;12.30;48.60
78788;DHT22;68131;52.508;5.502;2023-04-05T16:03:59;12.30;48.50
78788;DHT22;68131;52.508;5.502;2023-04-05T16:06:29;12.30;48.30
78788;DHT22;68131;52.508;5.502;2023-04-05T16:09:00;12.20;49.10
78788;DHT22;68131;52.508;5.502;2023-04-05T16:11:30;12.20;49.30
78788;DHT22;68131;52.508;5.502;2023-04-05T16:13:59;12.10;48.90